createdAt,value
2022-12-15T00:02:35.797Z,100.00
2022-12-15T00:05:21.648Z,100.00
2022-12-15T00:08:07.470Z,100.00
2022-12-15T00:10:52.825Z,100.00
2022-12-15T00:13:39.751Z,100.00
2022-12-15T00:16:26.231Z,100.00
2022-12-15T00:19:12.062Z,100.00
2022-12-15T00:21:57.531Z,100.00
2022-12-15T00:24:43.318Z,100.00
2022-12-15T00:27:28.736Z,100.00
2022-12-15T00:30:15.418Z,100.00
2022-12-15T00:33:01.099Z,100.00
2022-12-15T00:35:46.409Z,100.00
2022-12-15T00:38:33.235Z,100.00
2022-12-15T00:41:01.818Z,100.00
2022-12-15T00:43:30.855Z,100.00
2022-12-15T00:46:18.837Z,100.00
2022-12-15T00:48:47.887Z,100.00
2022-12-15T00:51:15.534Z,100.00
2022-12-15T00:54:02.333Z,100.00
2022-12-15T00:56:48.109Z,100.00
2022-12-15T00:59:34.321Z,100.00
2022-12-15T01:02:21.603Z,100.00
2022-12-15T01:05:07.609Z,100.00
2022-12-15T01:07:52.876Z,100.00
2022-12-15T01:10:38.737Z,100.00
2022-12-15T01:13:24.905Z,100.00
2022-12-15T01:16:10.399Z,100.00
2022-12-15T01:18:57.463Z,100.00
2022-12-15T01:21:26.000Z,100.00
2022-12-15T01:23:54.759Z,100.00
2022-12-15T01:26:22.903Z,100.00
2022-12-15T01:28:51.000Z,100.00
2022-12-15T01:31:19.248Z,100.00
2022-12-15T01:33:48.829Z,100.00
2022-12-15T01:36:16.982Z,100.00
2022-12-15T01:38:49.349Z,100.00
2022-12-15T01:41:19.503Z,100.00
2022-12-15T01:43:47.624Z,100.00
2022-12-15T01:46:20.459Z,100.00
2022-12-15T01:48:53.769Z,100.00
2022-12-15T01:51:27.305Z,100.00
2022-12-15T01:54:00.549Z,100.00
2022-12-15T01:56:35.525Z,100.00
2022-12-15T01:59:08.748Z,100.00
2022-12-15T02:01:37.244Z,100.00
2022-12-15T02:04:06.887Z,100.00
2022-12-15T02:06:36.319Z,100.00
2022-12-15T02:09:05.753Z,100.00
2022-12-15T02:11:44.217Z,100.00
2022-12-15T02:14:16.044Z,100.00
2022-12-15T02:16:57.877Z,100.00
2022-12-15T02:19:56.008Z,100.00
2022-12-15T02:22:36.133Z,100.00
2022-12-15T02:25:19.547Z,100.00
2022-12-15T02:28:03.429Z,100.00
2022-12-15T02:30:42.724Z,100.00
2022-12-15T02:33:18.723Z,100.00
2022-12-15T02:35:56.396Z,100.00
2022-12-15T02:38:35.928Z,100.00
2022-12-15T02:41:05.983Z,100.00
2022-12-15T02:43:38.990Z,100.00
2022-12-15T02:46:21.762Z,100.00
2022-12-15T02:49:03.700Z,100.00
2022-12-15T02:51:45.883Z,100.00
2022-12-15T02:54:38.105Z,100.00
2022-12-15T02:57:17.180Z,100.00
2022-12-15T02:59:55.659Z,100.00
2022-12-15T03:02:27.938Z,100.00
2022-12-15T03:04:57.082Z,100.00
2022-12-15T03:07:28.019Z,100.00
2022-12-15T03:09:57.354Z,100.00
2022-12-15T03:12:25.521Z,100.00
2022-12-15T03:14:53.625Z,100.00
2022-12-15T03:17:21.709Z,100.00
2022-12-15T03:19:51.248Z,100.00
2022-12-15T03:22:19.322Z,100.00
2022-12-15T03:24:48.457Z,100.00
2022-12-15T03:27:16.674Z,100.00
2022-12-15T03:29:44.876Z,100.00
2022-12-15T03:32:12.996Z,100.00
2022-12-15T03:34:42.000Z,100.00
2022-12-15T03:37:11.485Z,100.00
2022-12-15T03:39:39.600Z,100.00
2022-12-15T03:42:07.801Z,100.00
2022-12-15T03:44:35.909Z,100.00
2022-12-15T03:47:04.165Z,100.00
2022-12-15T03:49:32.244Z,100.00
2022-12-15T03:52:00.428Z,100.00
2022-12-15T03:54:29.915Z,100.00
2022-12-15T03:56:58.090Z,100.00
2022-12-15T03:59:26.179Z,100.00
2022-12-15T04:01:54.448Z,100.00
2022-12-15T04:04:22.631Z,100.00
2022-12-15T04:06:50.713Z,100.00
2022-12-15T04:09:19.538Z,100.00
2022-12-15T04:11:49.119Z,100.00
2022-12-15T04:14:17.250Z,100.00
2022-12-15T04:16:45.437Z,100.00
2022-12-15T04:19:27.403Z,100.00
2022-12-15T04:21:55.539Z,100.00
2022-12-15T04:24:41.271Z,100.00
2022-12-15T04:27:28.324Z,100.00
2022-12-15T04:30:13.685Z,100.00
2022-12-15T04:32:59.454Z,100.00
2022-12-15T04:35:45.304Z,100.00
2022-12-15T04:38:35.572Z,100.00
2022-12-15T04:41:21.250Z,100.00
2022-12-15T04:44:08.005Z,100.00
2022-12-15T04:46:53.732Z,100.00
2022-12-15T04:49:39.549Z,100.00
2022-12-15T04:52:25.152Z,100.00
2022-12-15T04:55:10.554Z,100.00
2022-12-15T04:57:56.286Z,100.00
2022-12-15T05:00:43.365Z,100.00
2022-12-15T05:03:29.104Z,100.00
2022-12-15T05:06:16.631Z,100.00
2022-12-15T05:09:02.299Z,100.00
2022-12-15T05:11:47.688Z,100.00
2022-12-15T05:14:33.422Z,100.00
2022-12-15T05:17:20.370Z,100.00
2022-12-15T05:20:06.207Z,100.00
2022-12-15T05:22:51.634Z,100.00
2022-12-15T05:25:37.252Z,100.00
2022-12-15T05:28:25.512Z,100.00
2022-12-15T05:31:11.269Z,100.00
2022-12-15T05:33:40.834Z,100.00
2022-12-15T05:36:09.710Z,100.00
2022-12-15T05:38:37.893Z,100.00
2022-12-15T05:41:06.191Z,100.00
2022-12-15T05:43:34.906Z,100.00
2022-12-15T05:46:04.982Z,100.00
2022-12-15T05:48:33.200Z,100.00
2022-12-15T05:51:06.319Z,100.00
2022-12-15T05:53:34.961Z,100.00
2022-12-15T05:56:04.180Z,100.00
2022-12-15T05:58:32.364Z,100.00
2022-12-15T06:01:05.358Z,100.00
2022-12-15T06:03:33.919Z,100.00
2022-12-15T06:06:02.893Z,100.00
2022-12-15T06:08:33.802Z,100.00
2022-12-15T06:11:02.609Z,100.00
2022-12-15T06:13:34.716Z,100.00
2022-12-15T06:16:04.382Z,100.00
2022-12-15T06:18:34.149Z,100.00
2022-12-15T06:21:04.293Z,100.00
2022-12-15T06:23:34.879Z,100.00
2022-12-15T06:26:11.280Z,100.00
2022-12-15T06:28:39.854Z,100.00
2022-12-15T06:31:10.332Z,100.00
2022-12-15T06:33:39.039Z,100.00
2022-12-15T06:36:09.609Z,100.00
2022-12-15T06:38:39.221Z,100.00
2022-12-15T06:41:08.414Z,100.00
2022-12-15T06:43:36.677Z,100.00
2022-12-15T06:46:04.868Z,100.00
2022-12-15T06:48:33.014Z,100.00
2022-12-15T06:51:04.067Z,100.00
2022-12-15T06:53:32.635Z,100.00
2022-12-15T06:56:04.722Z,100.00
2022-12-15T06:58:32.824Z,100.00
2022-12-15T07:01:06.065Z,100.00
2022-12-15T07:03:34.667Z,100.00
2022-12-15T07:06:05.518Z,100.00
2022-12-15T07:08:39.598Z,100.00
2022-12-15T07:11:14.248Z,100.00
2022-12-15T07:13:42.559Z,100.00
2022-12-15T07:16:12.890Z,100.00
2022-12-15T07:18:41.288Z,100.00
2022-12-15T07:21:11.008Z,100.00
2022-12-15T07:23:53.940Z,100.00
2022-12-15T07:26:24.740Z,100.00
2022-12-15T07:28:53.965Z,100.00
2022-12-15T07:31:23.106Z,100.00
2022-12-15T07:33:52.755Z,100.00
2022-12-15T07:36:21.162Z,100.00
2022-12-15T07:38:50.529Z,100.00
2022-12-15T07:41:20.631Z,100.00
2022-12-15T07:43:50.292Z,100.00
2022-12-15T07:46:19.448Z,100.00
2022-12-15T07:48:50.529Z,100.00
2022-12-15T07:51:21.225Z,100.00
2022-12-15T07:53:51.281Z,100.00
2022-12-15T07:56:20.868Z,100.00
2022-12-15T07:58:50.452Z,100.00
2022-12-15T08:01:18.840Z,100.00
2022-12-15T08:03:48.183Z,100.00
2022-12-15T08:06:16.980Z,100.00
2022-12-15T08:08:50.732Z,100.00
2022-12-15T08:11:22.069Z,100.00
2022-12-15T08:14:02.463Z,100.00
2022-12-15T08:16:31.895Z,100.00
2022-12-15T08:19:00.251Z,100.00
2022-12-15T08:21:28.453Z,100.00
2022-12-15T08:23:56.566Z,100.00
2022-12-15T08:26:30.011Z,100.00
2022-12-15T08:29:31.969Z,100.00
2022-12-15T08:31:52.439Z,100.00
2022-12-15T08:34:20.842Z,100.00
2022-12-15T08:36:49.033Z,100.00
2022-12-15T08:39:17.585Z,100.00
2022-12-15T08:41:46.198Z,100.00
2022-12-15T08:44:17.093Z,100.00
2022-12-15T08:46:45.332Z,100.00
2022-12-15T08:49:18.046Z,100.00
2022-12-15T08:51:50.238Z,100.00
2022-12-15T08:54:19.500Z,100.00
2022-12-15T08:56:47.765Z,100.00
2022-12-15T08:59:17.331Z,100.00
2022-12-15T09:01:45.528Z,100.00
2022-12-15T09:04:13.803Z,100.00
2022-12-15T09:06:42.005Z,98.33
2022-12-15T09:09:13.919Z,96.70
2022-12-15T09:11:42.078Z,96.02
2022-12-15T09:14:10.246Z,96.09
2022-12-15T09:16:39.948Z,95.02
2022-12-15T09:19:08.551Z,93.96
2022-12-15T09:21:37.095Z,94.51
2022-12-15T09:24:06.350Z,95.83
2022-12-15T09:26:35.726Z,94.78
2022-12-15T09:29:04.230Z,94.06
2022-12-15T09:31:34.012Z,93.56
2022-12-15T09:34:03.947Z,91.93
2022-12-15T09:36:33.436Z,91.12
2022-12-15T09:39:03.124Z,91.00
2022-12-15T09:41:33.225Z,90.52
2022-12-15T09:44:04.370Z,90.85
2022-12-15T09:46:49.826Z,91.17
2022-12-15T09:49:32.037Z,89.68
2022-12-15T09:52:10.701Z,90.25
2022-12-15T09:54:41.962Z,89.89
2022-12-15T09:57:18.763Z,88.78
2022-12-15T10:00:05.208Z,88.57
2022-12-15T10:03:02.285Z,88.13
2022-12-15T10:06:07.110Z,88.99
2022-12-15T10:08:35.235Z,88.65
2022-12-15T10:11:06.243Z,89.64
2022-12-15T10:13:42.076Z,88.04
2022-12-15T10:16:21.751Z,87.78
2022-12-15T10:19:01.714Z,87.90
2022-12-15T10:21:33.231Z,88.56
2022-12-15T10:24:17.622Z,88.76
2022-12-15T10:26:58.283Z,89.10
2022-12-15T10:29:37.748Z,90.45
2022-12-15T10:32:11.956Z,93.00
2022-12-15T10:34:43.258Z,94.02
2022-12-15T10:37:17.644Z,93.60
2022-12-15T10:39:47.522Z,95.78
2022-12-15T10:42:21.945Z,95.19
2022-12-15T10:44:51.865Z,95.04
2022-12-15T10:47:26.021Z,95.46
2022-12-15T10:49:55.293Z,94.76
2022-12-15T10:52:35.902Z,93.13
2022-12-15T10:55:24.136Z,91.22
2022-12-15T10:58:00.886Z,89.66
2022-12-15T11:00:31.405Z,87.78
2022-12-15T11:03:00.193Z,87.35
2022-12-15T11:05:28.683Z,85.69
2022-12-15T11:08:16.604Z,84.37
2022-12-15T11:11:09.636Z,82.89
2022-12-15T11:13:38.344Z,82.18
2022-12-15T11:16:17.107Z,80.21
2022-12-15T11:18:49.956Z,79.66
2022-12-15T11:21:23.720Z,79.09
2022-12-15T11:24:09.955Z,80.18
2022-12-15T11:26:49.592Z,78.69
2022-12-15T11:29:26.267Z,80.52
2022-12-15T11:31:57.945Z,82.15
2022-12-15T11:34:37.890Z,81.00
2022-12-15T11:37:36.490Z,79.87
2022-12-15T11:40:20.241Z,78.21
2022-12-15T11:43:01.017Z,77.86
2022-12-15T11:45:43.301Z,76.35
2022-12-15T11:48:17.337Z,77.10
2022-12-15T11:50:54.785Z,77.29
2022-12-15T11:53:52.210Z,76.77
2022-12-15T11:56:30.335Z,76.40
2022-12-15T11:59:39.675Z,76.36
2022-12-15T12:02:27.848Z,74.35
2022-12-15T12:05:11.065Z,75.43
2022-12-15T12:07:45.798Z,78.07
2022-12-15T12:10:28.957Z,79.17
2022-12-15T12:13:06.697Z,79.96
2022-12-15T12:15:49.240Z,79.95
2022-12-15T12:18:23.016Z,81.25
2022-12-15T12:20:57.944Z,81.52
2022-12-15T12:23:32.950Z,79.93
2022-12-15T12:26:08.495Z,79.15
2022-12-15T12:28:48.895Z,78.38
2022-12-15T12:31:39.750Z,77.50
2022-12-15T12:34:15.236Z,76.91
2022-12-15T12:36:45.175Z,76.39
2022-12-15T12:39:21.545Z,75.87
2022-12-15T12:41:57.021Z,75.26
2022-12-15T12:44:32.256Z,75.01
2022-12-15T12:47:07.936Z,74.76
2022-12-15T12:49:42.214Z,75.00
2022-12-15T12:52:21.984Z,73.32
2022-12-15T12:55:00.029Z,72.67
2022-12-15T12:57:39.703Z,70.71
2022-12-15T13:00:25.059Z,70.12
2022-12-15T13:03:16.461Z,66.97
2022-12-15T13:05:47.160Z,62.82
2022-12-15T13:08:51.379Z,60.11
2022-12-15T13:11:57.300Z,57.32
2022-12-15T13:14:38.625Z,57.26
2022-12-15T13:17:31.268Z,58.33
2022-12-15T13:20:17.031Z,62.33
2022-12-15T13:22:45.854Z,65.52
2022-12-15T13:25:42.430Z,68.68
2022-12-15T13:28:27.849Z,72.26
2022-12-15T13:31:33.954Z,74.90
2022-12-15T13:34:16.175Z,78.57
2022-12-15T13:36:54.743Z,81.09
2022-12-15T13:39:56.371Z,81.96
2022-12-15T13:42:35.883Z,83.22
2022-12-15T13:45:40.578Z,84.96
2022-12-15T13:48:31.193Z,85.66
2022-12-15T13:51:19.495Z,86.21
2022-12-15T13:53:51.698Z,87.45
2022-12-15T13:56:53.631Z,87.58
2022-12-15T13:59:31.918Z,87.80
2022-12-15T14:02:00.728Z,87.14
2022-12-15T14:04:29.061Z,88.51
2022-12-15T14:07:02.977Z,88.53
2022-12-15T14:09:34.098Z,88.32
2022-12-15T14:12:03.509Z,88.36
2022-12-15T14:14:36.235Z,89.55
2022-12-15T14:17:08.728Z,89.25
2022-12-15T14:19:41.620Z,89.84
2022-12-15T14:25:19.402Z,90.73
2022-12-15T14:27:50.740Z,92.04
2022-12-15T14:30:24.931Z,93.88
2022-12-15T14:32:57.707Z,95.71
2022-12-15T14:35:31.765Z,96.15
2022-12-15T14:38:04.522Z,95.83
2022-12-15T14:40:35.903Z,96.92
2022-12-15T14:43:05.595Z,97.22
2022-12-15T14:45:34.078Z,97.21
2022-12-15T14:48:40.117Z,97.11
2022-12-15T14:50:56.041Z,96.57
2022-12-15T14:53:34.967Z,96.54
2022-12-15T14:56:31.630Z,96.83
2022-12-15T14:59:04.044Z,97.10
2022-12-15T15:01:40.396Z,97.43
2022-12-15T15:04:24.594Z,97.78
2022-12-15T15:06:56.458Z,98.07
2022-12-15T15:09:28.502Z,98.46
2022-12-15T15:12:01.293Z,98.51
2022-12-15T15:14:33.612Z,99.05
2022-12-15T15:17:07.385Z,99.86
2022-12-15T15:19:40.890Z,99.48
2022-12-15T15:22:43.219Z,99.95
2022-12-15T15:25:40.268Z,100.00
2022-12-15T15:28:17.218Z,100.00
2022-12-15T15:30:48.538Z,100.00
2022-12-15T15:33:17.616Z,100.00
2022-12-15T15:35:50.234Z,100.00
2022-12-15T15:38:23.196Z,100.00
2022-12-15T15:40:57.733Z,100.00
2022-12-15T15:43:27.397Z,100.00
2022-12-15T15:46:01.889Z,100.00
2022-12-15T15:48:33.309Z,100.00
2022-12-15T15:51:02.245Z,100.00
2022-12-15T15:53:33.144Z,100.00
2022-12-15T15:56:06.659Z,100.00
2022-12-15T15:58:35.319Z,100.00
2022-12-15T16:01:09.580Z,100.00
2022-12-15T16:03:42.982Z,100.00
2022-12-15T16:06:16.657Z,100.00
2022-12-15T16:08:46.107Z,100.00
2022-12-15T16:11:17.471Z,100.00
2022-12-15T16:13:46.001Z,100.00
2022-12-15T16:16:19.311Z,100.00
2022-12-15T16:18:48.386Z,100.00
2022-12-15T16:21:17.986Z,100.00
2022-12-15T16:23:48.440Z,100.00
2022-12-15T16:26:26.953Z,100.00
2022-12-15T16:28:55.559Z,100.00
2022-12-15T16:31:35.472Z,100.00
2022-12-15T16:34:07.317Z,100.00
2022-12-15T16:36:35.592Z,100.00
2022-12-15T16:39:03.759Z,100.00
2022-12-15T16:41:34.229Z,100.00
2022-12-15T16:44:02.442Z,100.00
2022-12-15T16:46:30.638Z,100.00
2022-12-15T16:48:58.814Z,100.00
2022-12-15T16:51:35.281Z,100.00
2022-12-15T16:54:03.684Z,100.00
2022-12-15T16:56:33.689Z,100.00
2022-12-15T16:59:31.574Z,100.00
2022-12-15T17:01:50.288Z,100.00
2022-12-15T17:04:19.343Z,100.00
2022-12-15T17:06:47.595Z,100.00
2022-12-15T17:09:22.163Z,100.00
2022-12-15T17:11:52.576Z,100.00
2022-12-15T17:14:20.965Z,100.00
2022-12-15T17:16:49.160Z,100.00
2022-12-15T17:19:21.048Z,100.00
2022-12-15T17:21:51.998Z,100.00
2022-12-15T17:24:22.466Z,100.00
2022-12-15T17:26:52.421Z,100.00
2022-12-15T17:29:22.471Z,100.00
2022-12-15T17:31:51.286Z,100.00
2022-12-15T17:34:27.627Z,100.00
2022-12-15T17:36:56.480Z,100.00
2022-12-15T17:39:24.854Z,100.00
2022-12-15T17:42:02.816Z,100.00
2022-12-15T17:44:36.325Z,100.00
2022-12-15T17:47:07.933Z,100.00
2022-12-15T17:49:48.786Z,100.00
2022-12-15T17:52:27.033Z,100.00
2022-12-15T17:54:56.681Z,100.00
2022-12-15T17:57:26.372Z,100.00
2022-12-15T17:59:55.039Z,100.00
2022-12-15T18:02:23.363Z,100.00
2022-12-15T18:04:51.744Z,100.00
2022-12-15T18:07:22.039Z,100.00
2022-12-15T18:09:51.340Z,100.00
2022-12-15T18:12:21.847Z,100.00
2022-12-15T18:14:52.133Z,100.00
2022-12-15T18:17:20.499Z,100.00
2022-12-15T18:19:49.113Z,100.00
2022-12-15T18:22:22.582Z,100.00
2022-12-15T18:24:52.296Z,100.00
2022-12-15T18:27:23.658Z,100.00
2022-12-15T18:29:53.737Z,100.00
2022-12-15T18:32:23.637Z,100.00
2022-12-15T18:34:52.466Z,100.00
2022-12-15T18:37:23.051Z,100.00
2022-12-15T18:39:51.814Z,100.00
2022-12-15T18:42:21.927Z,100.00
2022-12-15T18:44:53.588Z,100.00
2022-12-15T18:47:23.879Z,100.00
2022-12-15T18:49:52.440Z,100.00
2022-12-15T18:52:23.146Z,100.00
2022-12-15T18:54:54.241Z,100.00
2022-12-15T18:57:28.217Z,100.00
2022-12-15T19:00:00.367Z,100.00
2022-12-15T19:02:28.918Z,100.00
2022-12-15T19:04:57.296Z,100.00
2022-12-15T19:07:25.591Z,100.00
2022-12-15T19:09:54.248Z,100.00
2022-12-15T19:12:22.592Z,100.00
2022-12-15T19:14:53.084Z,100.00
2022-12-15T19:17:42.814Z,100.00
2022-12-15T19:20:35.549Z,100.00
2022-12-15T19:23:04.052Z,100.00
2022-12-15T19:25:33.024Z,100.00
2022-12-15T19:28:01.970Z,100.00
2022-12-15T19:30:37.077Z,100.00
2022-12-15T19:33:11.363Z,100.00
2022-12-15T19:35:41.318Z,100.00
2022-12-15T19:38:12.854Z,100.00
2022-12-15T19:40:41.225Z,100.00
2022-12-15T19:43:14.330Z,100.00
2022-12-15T19:45:42.548Z,100.00
2022-12-15T19:48:13.336Z,100.00
2022-12-15T19:50:43.181Z,100.00
2022-12-15T19:53:18.703Z,100.00
2022-12-15T19:55:46.839Z,100.00
2022-12-15T19:58:27.810Z,100.00
2022-12-15T20:00:58.171Z,100.00
2022-12-15T20:03:28.746Z,100.00
2022-12-15T20:05:58.628Z,100.00
2022-12-15T20:08:29.192Z,100.00
2022-12-15T20:10:58.096Z,100.00
2022-12-15T20:13:27.259Z,100.00
2022-12-15T20:15:55.761Z,100.00
2022-12-15T20:18:24.135Z,100.00
2022-12-15T20:20:53.812Z,100.00
2022-12-15T20:23:27.057Z,100.00
2022-12-15T20:25:56.042Z,100.00
2022-12-15T20:28:26.876Z,100.00
2022-12-15T20:30:56.587Z,100.00
2022-12-15T20:33:24.847Z,100.00
2022-12-15T20:35:55.235Z,100.00
2022-12-15T20:38:30.138Z,100.00
2022-12-15T20:40:59.632Z,100.00
2022-12-15T20:43:31.392Z,100.00
2022-12-15T20:46:04.208Z,100.00
2022-12-15T20:48:34.816Z,100.00
2022-12-15T20:51:09.229Z,100.00
2022-12-15T20:53:39.143Z,100.00
2022-12-15T20:56:07.786Z,100.00
2022-12-15T20:58:41.754Z,100.00
2022-12-15T21:01:19.723Z,100.00
2022-12-15T21:03:48.827Z,100.00
2022-12-15T21:06:18.950Z,100.00
2022-12-15T21:08:47.158Z,100.00
2022-12-15T21:11:18.645Z,100.00
2022-12-15T21:13:48.701Z,100.00
2022-12-15T21:16:19.876Z,100.00
2022-12-15T21:21:40.849Z,100.00
2022-12-15T21:24:16.685Z,100.00
2022-12-15T21:26:44.996Z,100.00
2022-12-15T21:29:14.957Z,100.00
2022-12-15T21:31:43.500Z,100.00
2022-12-15T21:34:12.956Z,100.00
2022-12-15T21:36:45.115Z,100.00
2022-12-15T21:39:16.816Z,100.00
2022-12-15T21:41:45.459Z,100.00
2022-12-15T21:44:14.911Z,100.00
2022-12-15T21:46:43.584Z,100.00
2022-12-15T21:49:18.563Z,100.00
2022-12-15T21:51:51.863Z,100.00
2022-12-15T21:57:12.629Z,100.00
2022-12-15T21:59:40.945Z,100.00
2022-12-15T22:02:26.147Z,100.00
2022-12-15T22:04:55.087Z,100.00
2022-12-15T22:07:24.786Z,100.00
2022-12-15T22:09:52.961Z,100.00
2022-12-15T22:12:24.305Z,100.00
2022-12-15T22:14:52.889Z,100.00
2022-12-15T22:17:23.085Z,100.00
2022-12-15T22:19:51.274Z,100.00
2022-12-15T22:22:20.688Z,100.00
2022-12-15T22:24:50.257Z,100.00
2022-12-15T22:27:21.009Z,100.00
2022-12-15T22:29:50.411Z,100.00
2022-12-15T22:32:19.136Z,100.00
2022-12-15T22:34:47.339Z,100.00
2022-12-15T22:37:15.865Z,100.00
2022-12-15T22:39:43.961Z,100.00
2022-12-15T22:42:17.987Z,100.00
2022-12-15T22:44:46.738Z,100.00
2022-12-15T22:47:15.068Z,100.00
2022-12-15T22:49:43.712Z,100.00
2022-12-15T22:52:17.363Z,100.00
2022-12-15T22:54:46.300Z,100.00
2022-12-15T22:57:21.931Z,100.00
2022-12-15T23:00:00.612Z,100.00
2022-12-15T23:02:30.118Z,100.00
2022-12-15T23:04:58.273Z,100.00
2022-12-15T23:07:26.750Z,100.00
2022-12-15T23:10:15.396Z,100.00
2022-12-15T23:12:44.061Z,100.00
2022-12-15T23:15:30.140Z,100.00
2022-12-15T23:17:58.312Z,100.00
2022-12-15T23:20:26.960Z,100.00
2022-12-15T23:22:55.253Z,100.00
2022-12-15T23:25:23.420Z,100.00
2022-12-15T23:27:53.071Z,100.00
2022-12-15T23:30:21.169Z,100.00
2022-12-15T23:32:49.275Z,100.00
2022-12-15T23:35:17.572Z,100.00
2022-12-15T23:37:46.043Z,100.00
2022-12-15T23:40:19.989Z,100.00
2022-12-15T23:42:48.429Z,100.00
2022-12-15T23:45:18.369Z,100.00
2022-12-15T23:47:46.686Z,100.00
2022-12-15T23:50:15.206Z,100.00
2022-12-15T23:52:43.363Z,100.00
2022-12-15T23:55:11.592Z,100.00
2022-12-15T23:57:40.223Z,100.00
